sensor_id;sensor_type;location;lat;lon;timestamp;P1;durP1;ratioP1;P2;durP2;ratioP2
7965;SDS011;4028;43.272;26.932;2022-08-01T00:01:36;4.00;;;3.67;;
7965;SDS011;4028;43.272;26.932;2022-08-01T00:04:02;3.00;;;2.80;;
7965;SDS011;4028;43.272;26.932;2022-08-01T00:06:28;5.22;;;3.58;;
7965;SDS011;4028;43.272;26.932;2022-08-01T00:08:55;3.25;;;2.97;;
7965;SDS011;4028;43.272;26.932;2022-08-01T00:11:20;3.33;;;3.03;;
7965;SDS011;4028;43.272;26.932;2022-08-01T00:13:46;3.33;;;3.10;;
7965;SDS011;4028;43.272;26.932;2022-08-01T00:16:11;3.40;;;3.10;;
7965;SDS011;4028;43.272;26.932;2022-08-01T00:18:37;5.72;;;3.03;;
7965;SDS011;4028;43.272;26.932;2022-08-01T00:21:03;4.00;;;2.97;;
7965;SDS011;4028;43.272;26.932;2022-08-01T00:23:29;3.15;;;2.92;;
7965;SDS011;4028;43.272;26.932;2022-08-01T00:25:54;3.55;;;3.28;;
7965;SDS011;4028;43.272;26.932;2022-08-01T00:28:20;3.38;;;2.72;;
7965;SDS011;4028;43.272;26.932;2022-08-01T00:30:45;2.92;;;2.70;;
7965;SDS011;4028;43.272;26.932;2022-08-01T00:33:11;3.33;;;3.05;;
7965;SDS011;4028;43.272;26.932;2022-08-01T00:35:37;3.17;;;2.63;;
7965;SDS011;4028;43.272;26.932;2022-08-01T00:38:02;2.80;;;2.60;;
7965;SDS011;4028;43.272;26.932;2022-08-01T00:40:28;3.22;;;2.90;;
7965;SDS011;4028;43.272;26.932;2022-08-01T00:42:53;3.17;;;2.88;;
7965;SDS011;4028;43.272;26.932;2022-08-01T00:45:19;2.80;;;2.60;;
7965;SDS011;4028;43.272;26.932;2022-08-01T00:47:44;3.03;;;2.83;;
7965;SDS011;4028;43.272;26.932;2022-08-01T00:50:10;3.08;;;2.80;;
7965;SDS011;4028;43.272;26.932;2022-08-01T00:52:36;8.10;;;2.85;;
7965;SDS011;4028;43.272;26.932;2022-08-01T00:55:03;2.80;;;2.60;;
7965;SDS011;4028;43.272;26.932;2022-08-01T00:57:29;4.15;;;2.65;;
7965;SDS011;4028;43.272;26.932;2022-08-01T00:59:55;3.75;;;2.70;;
7965;SDS011;4028;43.272;26.932;2022-08-01T01:02:21;3.35;;;3.03;;
7965;SDS011;4028;43.272;26.932;2022-08-01T01:04:46;6.38;;;2.70;;
7965;SDS011;4028;43.272;26.932;2022-08-01T01:18:25;2.85;;;2.35;;
7965;SDS011;4028;43.272;26.932;2022-08-01T01:21:00;3.90;;;2.30;;
7965;SDS011;4028;43.272;26.932;2022-08-01T01:31:47;2.90;;;2.63;;
7965;SDS011;4028;43.272;26.932;2022-08-01T01:34:21;3.17;;;2.40;;
7965;SDS011;4028;43.272;26.932;2022-08-01T01:36:49;4.07;;;2.35;;
7965;SDS011;4028;43.272;26.932;2022-08-01T01:39:17;3.17;;;2.55;;
7965;SDS011;4028;43.272;26.932;2022-08-01T01:41:44;3.17;;;2.47;;
7965;SDS011;4028;43.272;26.932;2022-08-01T01:44:11;2.25;;;2.10;;
7965;SDS011;4028;43.272;26.932;2022-08-01T01:46:40;2.50;;;2.30;;
7965;SDS011;4028;43.272;26.932;2022-08-01T01:49:06;2.65;;;2.45;;
7965;SDS011;4028;43.272;26.932;2022-08-01T01:51:37;2.75;;;2.25;;
7965;SDS011;4028;43.272;26.932;2022-08-01T01:54:06;3.72;;;2.67;;
7965;SDS011;4028;43.272;26.932;2022-08-01T01:56:33;4.13;;;2.47;;
7965;SDS011;4028;43.272;26.932;2022-08-01T01:59:01;3.65;;;2.60;;
7965;SDS011;4028;43.272;26.932;2022-08-01T02:01:29;4.43;;;2.70;;
7965;SDS011;4028;43.272;26.932;2022-08-01T02:03:57;3.58;;;2.65;;
7965;SDS011;4028;43.272;26.932;2022-08-01T02:06:25;2.30;;;2.10;;
7965;SDS011;4028;43.272;26.932;2022-08-01T02:08:52;3.97;;;2.70;;
7965;SDS011;4028;43.272;26.932;2022-08-01T02:11:20;2.58;;;2.40;;
7965;SDS011;4028;43.272;26.932;2022-08-01T02:13:53;2.92;;;2.53;;
7965;SDS011;4028;43.272;26.932;2022-08-01T02:19:45;2.67;;;2.47;;
7965;SDS011;4028;43.272;26.932;2022-08-01T02:27:26;2.83;;;2.50;;
7965;SDS011;4028;43.272;26.932;2022-08-01T02:30:13;3.47;;;2.53;;
7965;SDS011;4028;43.272;26.932;2022-08-01T02:32:48;4.10;;;2.65;;
7965;SDS011;4028;43.272;26.932;2022-08-01T02:35:21;6.40;;;2.47;;
7965;SDS011;4028;43.272;26.932;2022-08-01T02:37:51;2.35;;;2.10;;
7965;SDS011;4028;43.272;26.932;2022-08-01T02:40:18;6.82;;;2.50;;
7965;SDS011;4028;43.272;26.932;2022-08-01T02:42:45;2.50;;;2.30;;
7965;SDS011;4028;43.272;26.932;2022-08-01T02:45:17;2.72;;;2.13;;
7965;SDS011;4028;43.272;26.932;2022-08-01T02:47:45;4.53;;;2.30;;
7965;SDS011;4028;43.272;26.932;2022-08-01T02:50:12;4.47;;;2.33;;
7965;SDS011;4028;43.272;26.932;2022-08-01T02:52:41;5.95;;;2.47;;
7965;SDS011;4028;43.272;26.932;2022-08-01T02:55:11;2.58;;;2.38;;
7965;SDS011;4028;43.272;26.932;2022-08-01T02:57:38;2.63;;;2.42;;
7965;SDS011;4028;43.272;26.932;2022-08-01T03:00:06;2.83;;;2.50;;
7965;SDS011;4028;43.272;26.932;2022-08-01T03:02:32;3.28;;;2.22;;
7965;SDS011;4028;43.272;26.932;2022-08-01T03:05:00;2.78;;;2.33;;
7965;SDS011;4028;43.272;26.932;2022-08-01T03:07:27;2.83;;;2.40;;
7965;SDS011;4028;43.272;26.932;2022-08-01T03:09:54;2.45;;;2.25;;
7965;SDS011;4028;43.272;26.932;2022-08-01T03:12:22;2.38;;;2.17;;
7965;SDS011;4028;43.272;26.932;2022-08-01T03:14:51;3.83;;;2.10;;
7965;SDS011;4028;43.272;26.932;2022-08-01T03:17:20;4.53;;;2.30;;
7965;SDS011;4028;43.272;26.932;2022-08-01T03:19:47;2.65;;;2.22;;
7965;SDS011;4028;43.272;26.932;2022-08-01T03:22:14;3.72;;;2.40;;
7965;SDS011;4028;43.272;26.932;2022-08-01T03:24:41;3.90;;;2.60;;
7965;SDS011;4028;43.272;26.932;2022-08-01T03:27:09;3.25;;;2.38;;
7965;SDS011;4028;43.272;26.932;2022-08-01T03:29:36;3.15;;;2.70;;
7965;SDS011;4028;43.272;26.932;2022-08-01T03:32:04;2.85;;;2.30;;
7965;SDS011;4028;43.272;26.932;2022-08-01T03:34:31;2.42;;;2.22;;
7965;SDS011;4028;43.272;26.932;2022-08-01T03:37:07;3.67;;;2.50;;
7965;SDS011;4028;43.272;26.932;2022-08-01T03:39:37;2.53;;;2.28;;
7965;SDS011;4028;43.272;26.932;2022-08-01T03:42:12;5.25;;;2.33;;
7965;SDS011;4028;43.272;26.932;2022-08-01T03:44:41;2.40;;;2.20;;
7965;SDS011;4028;43.272;26.932;2022-08-01T03:47:18;2.40;;;2.20;;
7965;SDS011;4028;43.272;26.932;2022-08-01T03:49:47;4.18;;;2.45;;
7965;SDS011;4028;43.272;26.932;2022-08-01T03:52:14;3.60;;;2.20;;
7965;SDS011;4028;43.272;26.932;2022-08-01T03:54:43;4.35;;;2.40;;
7965;SDS011;4028;43.272;26.932;2022-08-01T03:57:12;4.68;;;2.10;;
7965;SDS011;4028;43.272;26.932;2022-08-01T03:59:39;2.25;;;2.05;;
7965;SDS011;4028;43.272;26.932;2022-08-01T04:02:07;3.90;;;2.30;;
7965;SDS011;4028;43.272;26.932;2022-08-01T04:04:33;2.97;;;2.20;;
7965;SDS011;4028;43.272;26.932;2022-08-01T04:06:59;2.97;;;2.35;;
7965;SDS011;4028;43.272;26.932;2022-08-01T04:09:29;2.80;;;2.35;;
7965;SDS011;4028;43.272;26.932;2022-08-01T04:11:56;2.95;;;1.90;;
7965;SDS011;4028;43.272;26.932;2022-08-01T04:14:23;5.05;;;2.17;;
7965;SDS011;4028;43.272;26.932;2022-08-01T04:16:48;2.50;;;2.30;;
7965;SDS011;4028;43.272;26.932;2022-08-01T04:19:14;4.78;;;2.60;;
7965;SDS011;4028;43.272;26.932;2022-08-01T04:21:40;4.05;;;1.90;;
7965;SDS011;4028;43.272;26.932;2022-08-01T04:24:12;4.70;;;2.47;;
7965;SDS011;4028;43.272;26.932;2022-08-01T04:26:41;4.00;;;2.50;;
7965;SDS011;4028;43.272;26.932;2022-08-01T04:29:10;2.60;;;2.05;;
7965;SDS011;4028;43.272;26.932;2022-08-01T04:31:37;2.75;;;2.42;;
7965;SDS011;4028;43.272;26.932;2022-08-01T04:34:06;2.65;;;2.42;;
7965;SDS011;4028;43.272;26.932;2022-08-01T04:36:32;4.07;;;2.45;;
7965;SDS011;4028;43.272;26.932;2022-08-01T04:39:00;3.15;;;2.10;;
7965;SDS011;4028;43.272;26.932;2022-08-01T04:41:27;4.82;;;2.40;;
7965;SDS011;4028;43.272;26.932;2022-08-01T04:43:55;2.83;;;1.95;;
7965;SDS011;4028;43.272;26.932;2022-08-01T04:46:24;6.82;;;2.15;;
7965;SDS011;4028;43.272;26.932;2022-08-01T04:48:51;2.53;;;2.33;;
7965;SDS011;4028;43.272;26.932;2022-08-01T04:51:17;5.97;;;2.30;;
7965;SDS011;4028;43.272;26.932;2022-08-01T04:53:46;5.38;;;2.55;;
7965;SDS011;4028;43.272;26.932;2022-08-01T04:56:12;2.50;;;2.30;;
7965;SDS011;4028;43.272;26.932;2022-08-01T04:58:39;3.25;;;2.20;;
7965;SDS011;4028;43.272;26.932;2022-08-01T05:01:06;2.20;;;2.03;;
7965;SDS011;4028;43.272;26.932;2022-08-01T05:03:31;3.00;;;2.50;;
7965;SDS011;4028;43.272;26.932;2022-08-01T05:05:57;2.45;;;2.25;;
7965;SDS011;4028;43.272;26.932;2022-08-01T05:08:22;2.83;;;2.30;;
7965;SDS011;4028;43.272;26.932;2022-08-01T05:10:48;8.23;;;2.22;;
7965;SDS011;4028;43.272;26.932;2022-08-01T05:13:13;3.83;;;2.58;;
7965;SDS011;4028;43.272;26.932;2022-08-01T05:15:39;4.95;;;2.47;;
7965;SDS011;4028;43.272;26.932;2022-08-01T05:18:04;4.30;;;2.63;;
7965;SDS011;4028;43.272;26.932;2022-08-01T05:20:30;4.70;;;2.70;;
7965;SDS011;4028;43.272;26.932;2022-08-01T05:22:56;3.20;;;2.85;;
7965;SDS011;4028;43.272;26.932;2022-08-01T05:25:22;3.95;;;2.63;;
7965;SDS011;4028;43.272;26.932;2022-08-01T05:27:48;4.03;;;2.45;;
7965;SDS011;4028;43.272;26.932;2022-08-01T05:30:14;4.03;;;3.00;;
7965;SDS011;4028;43.272;26.932;2022-08-01T05:32:40;5.03;;;2.20;;
7965;SDS011;4028;43.272;26.932;2022-08-01T05:35:06;9.20;;;2.88;;
7965;SDS011;4028;43.272;26.932;2022-08-01T05:37:32;4.53;;;2.20;;
7965;SDS011;4028;43.272;26.932;2022-08-01T05:39:58;5.25;;;2.05;;
7965;SDS011;4028;43.272;26.932;2022-08-01T05:42:23;2.97;;;2.28;;
7965;SDS011;4028;43.272;26.932;2022-08-01T05:44:49;3.45;;;2.20;;
7965;SDS011;4028;43.272;26.932;2022-08-01T05:47:16;2.20;;;2.00;;
7965;SDS011;4028;43.272;26.932;2022-08-01T05:49:42;6.32;;;2.00;;
7965;SDS011;4028;43.272;26.932;2022-08-01T05:52:07;4.03;;;2.15;;
7965;SDS011;4028;43.272;26.932;2022-08-01T05:54:33;5.35;;;2.10;;
7965;SDS011;4028;43.272;26.932;2022-08-01T05:56:58;2.92;;;2.53;;
7965;SDS011;4028;43.272;26.932;2022-08-01T05:59:28;4.30;;;2.30;;
7965;SDS011;4028;43.272;26.932;2022-08-01T06:01:53;5.78;;;2.30;;
7965;SDS011;4028;43.272;26.932;2022-08-01T06:04:19;6.68;;;2.40;;
7965;SDS011;4028;43.272;26.932;2022-08-01T06:06:44;3.22;;;2.13;;
7965;SDS011;4028;43.272;26.932;2022-08-01T06:09:10;2.80;;;1.90;;
7965;SDS011;4028;43.272;26.932;2022-08-01T06:11:35;3.00;;;2.05;;
7965;SDS011;4028;43.272;26.932;2022-08-01T06:14:01;6.82;;;2.00;;
7965;SDS011;4028;43.272;26.932;2022-08-01T06:16:26;5.15;;;2.22;;
7965;SDS011;4028;43.272;26.932;2022-08-01T06:18:52;2.78;;;1.98;;
7965;SDS011;4028;43.272;26.932;2022-08-01T06:21:18;4.00;;;1.90;;
7965;SDS011;4028;43.272;26.932;2022-08-01T06:23:43;2.15;;;2.00;;
7965;SDS011;4028;43.272;26.932;2022-08-01T06:26:09;3.83;;;2.20;;
7965;SDS011;4028;43.272;26.932;2022-08-01T06:28:35;7.22;;;2.00;;
7965;SDS011;4028;43.272;26.932;2022-08-01T06:31:01;2.33;;;1.90;;
7965;SDS011;4028;43.272;26.932;2022-08-01T06:33:26;4.78;;;2.00;;
7965;SDS011;4028;43.272;26.932;2022-08-01T06:35:52;4.25;;;2.10;;
7965;SDS011;4028;43.272;26.932;2022-08-01T06:38:18;3.92;;;2.05;;
7965;SDS011;4028;43.272;26.932;2022-08-01T06:40:43;2.20;;;1.95;;
7965;SDS011;4028;43.272;26.932;2022-08-01T06:43:09;6.03;;;2.00;;
7965;SDS011;4028;43.272;26.932;2022-08-01T06:45:36;2.95;;;1.77;;
7965;SDS011;4028;43.272;26.932;2022-08-01T06:48:03;5.60;;;2.25;;
7965;SDS011;4028;43.272;26.932;2022-08-01T06:50:29;2.72;;;2.03;;
7965;SDS011;4028;43.272;26.932;2022-08-01T06:52:54;2.88;;;1.95;;
7965;SDS011;4028;43.272;26.932;2022-08-01T06:55:20;4.18;;;2.30;;
7965;SDS011;4028;43.272;26.932;2022-08-01T06:57:46;2.63;;;2.00;;
7965;SDS011;4028;43.272;26.932;2022-08-01T07:00:13;4.57;;;1.75;;
7965;SDS011;4028;43.272;26.932;2022-08-01T07:02:41;3.67;;;2.22;;
7965;SDS011;4028;43.272;26.932;2022-08-01T07:05:06;4.10;;;1.90;;
7965;SDS011;4028;43.272;26.932;2022-08-01T07:07:32;2.30;;;1.92;;
7965;SDS011;4028;43.272;26.932;2022-08-01T07:09:58;3.35;;;1.80;;
7965;SDS011;4028;43.272;26.932;2022-08-01T07:12:23;4.97;;;1.90;;
7965;SDS011;4028;43.272;26.932;2022-08-01T07:14:48;3.00;;;1.83;;
7965;SDS011;4028;43.272;26.932;2022-08-01T07:17:14;3.63;;;1.95;;
7965;SDS011;4028;43.272;26.932;2022-08-01T07:19:39;4.22;;;1.95;;
7965;SDS011;4028;43.272;26.932;2022-08-01T07:22:05;4.32;;;1.90;;
7965;SDS011;4028;43.272;26.932;2022-08-01T07:24:30;6.55;;;2.50;;
7965;SDS011;4028;43.272;26.932;2022-08-01T07:26:56;2.00;;;1.90;;
7965;SDS011;4028;43.272;26.932;2022-08-01T07:29:25;4.55;;;2.00;;
7965;SDS011;4028;43.272;26.932;2022-08-01T07:31:54;2.20;;;1.73;;
7965;SDS011;4028;43.272;26.932;2022-08-01T07:34:21;3.45;;;2.00;;
7965;SDS011;4028;43.272;26.932;2022-08-01T07:36:47;5.55;;;2.20;;
7965;SDS011;4028;43.272;26.932;2022-08-01T07:39:13;2.00;;;1.90;;
7965;SDS011;4028;43.272;26.932;2022-08-01T07:41:38;4.90;;;1.88;;
7965;SDS011;4028;43.272;26.932;2022-08-01T07:44:04;2.55;;;1.60;;
7965;SDS011;4028;43.272;26.932;2022-08-01T07:46:29;6.25;;;1.88;;
7965;SDS011;4028;43.272;26.932;2022-08-01T07:48:56;4.93;;;1.90;;
7965;SDS011;4028;43.272;26.932;2022-08-01T07:51:21;5.60;;;2.00;;
7965;SDS011;4028;43.272;26.932;2022-08-01T07:53:47;7.88;;;2.40;;
7965;SDS011;4028;43.272;26.932;2022-08-01T07:56:12;6.35;;;2.08;;
7965;SDS011;4028;43.272;26.932;2022-08-01T07:58:38;3.67;;;2.03;;
7965;SDS011;4028;43.272;26.932;2022-08-01T08:01:03;3.25;;;1.80;;
7965;SDS011;4028;43.272;26.932;2022-08-01T08:03:29;4.55;;;1.80;;
7965;SDS011;4028;43.272;26.932;2022-08-01T08:05:54;4.20;;;2.08;;
7965;SDS011;4028;43.272;26.932;2022-08-01T08:08:20;2.75;;;1.60;;
7965;SDS011;4028;43.272;26.932;2022-08-01T08:10:45;2.40;;;1.90;;
7965;SDS011;4028;43.272;26.932;2022-08-01T08:13:10;2.78;;;1.98;;
7965;SDS011;4028;43.272;26.932;2022-08-01T08:15:36;8.27;;;1.92;;
7965;SDS011;4028;43.272;26.932;2022-08-01T08:18:05;5.60;;;2.28;;
7965;SDS011;4028;43.272;26.932;2022-08-01T08:20:30;1.70;;;1.58;;
7965;SDS011;4028;43.272;26.932;2022-08-01T08:22:56;1.85;;;1.60;;
7965;SDS011;4028;43.272;26.932;2022-08-01T08:25:23;1.98;;;1.77;;
7965;SDS011;4028;43.272;26.932;2022-08-01T08:27:50;2.08;;;1.75;;
7965;SDS011;4028;43.272;26.932;2022-08-01T08:30:15;5.72;;;1.95;;
7965;SDS011;4028;43.272;26.932;2022-08-01T08:32:41;3.38;;;1.90;;
7965;SDS011;4028;43.272;26.932;2022-08-01T08:35:07;6.75;;;1.92;;
7965;SDS011;4028;43.272;26.932;2022-08-01T08:37:33;2.53;;;1.83;;
7965;SDS011;4028;43.272;26.932;2022-08-01T08:40:00;4.32;;;2.13;;
7965;SDS011;4028;43.272;26.932;2022-08-01T08:42:25;3.03;;;1.75;;
7965;SDS011;4028;43.272;26.932;2022-08-01T08:44:51;7.97;;;2.40;;
7965;SDS011;4028;43.272;26.932;2022-08-01T08:47:19;4.55;;;1.67;;
7965;SDS011;4028;43.272;26.932;2022-08-01T08:49:46;1.90;;;1.70;;
7965;SDS011;4028;43.272;26.932;2022-08-01T08:52:13;4.43;;;1.90;;
7965;SDS011;4028;43.272;26.932;2022-08-01T08:54:40;5.68;;;2.40;;
7965;SDS011;4028;43.272;26.932;2022-08-01T08:57:07;4.13;;;2.35;;
7965;SDS011;4028;43.272;26.932;2022-08-01T08:59:36;3.25;;;2.10;;
7965;SDS011;4028;43.272;26.932;2022-08-01T09:02:02;3.03;;;1.90;;
7965;SDS011;4028;43.272;26.932;2022-08-01T09:04:29;3.60;;;1.60;;
7965;SDS011;4028;43.272;26.932;2022-08-01T09:06:55;1.67;;;1.58;;
7965;SDS011;4028;43.272;26.932;2022-08-01T09:09:21;4.75;;;1.92;;
7965;SDS011;4028;43.272;26.932;2022-08-01T09:11:47;3.60;;;1.80;;
7965;SDS011;4028;43.272;26.932;2022-08-01T09:16:41;2.80;;;1.85;;
7965;SDS011;4028;43.272;26.932;2022-08-01T09:21:55;4.03;;;1.90;;
7965;SDS011;4028;43.272;26.932;2022-08-01T09:24:24;2.53;;;1.80;;
7965;SDS011;4028;43.272;26.932;2022-08-01T09:26:51;2.15;;;1.92;;
7965;SDS011;4028;43.272;26.932;2022-08-01T09:29:19;3.38;;;2.00;;
7965;SDS011;4028;43.272;26.932;2022-08-01T09:31:46;2.15;;;1.90;;
7965;SDS011;4028;43.272;26.932;2022-08-01T09:34:12;4.57;;;2.00;;
7965;SDS011;4028;43.272;26.932;2022-08-01T09:36:45;3.28;;;2.10;;
7965;SDS011;4028;43.272;26.932;2022-08-01T09:39:16;2.08;;;1.88;;
7965;SDS011;4028;43.272;26.932;2022-08-01T09:41:44;5.43;;;2.42;;
7965;SDS011;4028;43.272;26.932;2022-08-01T09:44:10;3.70;;;2.00;;
7965;SDS011;4028;43.272;26.932;2022-08-01T09:46:35;2.65;;;1.90;;
7965;SDS011;4028;43.272;26.932;2022-08-01T09:49:02;2.85;;;2.20;;
7965;SDS011;4028;43.272;26.932;2022-08-01T09:51:35;4.20;;;2.17;;
7965;SDS011;4028;43.272;26.932;2022-08-01T09:54:02;2.28;;;2.08;;
7965;SDS011;4028;43.272;26.932;2022-08-01T09:56:40;2.80;;;2.50;;
7965;SDS011;4028;43.272;26.932;2022-08-01T09:59:10;3.42;;;2.80;;
7965;SDS011;4028;43.272;26.932;2022-08-01T10:01:44;7.18;;;2.72;;
7965;SDS011;4028;43.272;26.932;2022-08-01T10:04:12;2.60;;;2.40;;
7965;SDS011;4028;43.272;26.932;2022-08-01T10:06:42;2.85;;;2.60;;
7965;SDS011;4028;43.272;26.932;2022-08-01T10:09:09;3.05;;;2.75;;
7965;SDS011;4028;43.272;26.932;2022-08-01T10:11:36;3.83;;;2.95;;
7965;SDS011;4028;43.272;26.932;2022-08-01T10:14:06;4.32;;;3.05;;
7965;SDS011;4028;43.272;26.932;2022-08-01T10:16:33;3.00;;;2.80;;
7965;SDS011;4028;43.272;26.932;2022-08-01T10:19:06;13.63;;;3.05;;
7965;SDS011;4028;43.272;26.932;2022-08-01T10:21:33;2.78;;;2.58;;
7965;SDS011;4028;43.272;26.932;2022-08-01T10:24:02;6.97;;;2.60;;
7965;SDS011;4028;43.272;26.932;2022-08-01T10:26:29;9.25;;;3.40;;
7965;SDS011;4028;43.272;26.932;2022-08-01T10:28:58;2.95;;;2.50;;
7965;SDS011;4028;43.272;26.932;2022-08-01T10:31:24;3.50;;;2.92;;
7965;SDS011;4028;43.272;26.932;2022-08-01T10:33:50;2.88;;;2.60;;
7965;SDS011;4028;43.272;26.932;2022-08-01T10:36:18;3.03;;;2.70;;
7965;SDS011;4028;43.272;26.932;2022-08-01T10:38:45;3.88;;;2.67;;
7965;SDS011;4028;43.272;26.932;2022-08-01T10:41:12;3.58;;;2.60;;
7965;SDS011;4028;43.272;26.932;2022-08-01T10:43:39;4.05;;;2.63;;
7965;SDS011;4028;43.272;26.932;2022-08-01T10:46:05;3.80;;;2.53;;
7965;SDS011;4028;43.272;26.932;2022-08-01T10:48:35;3.60;;;3.00;;
7965;SDS011;4028;43.272;26.932;2022-08-01T10:51:14;4.53;;;2.95;;
7965;SDS011;4028;43.272;26.932;2022-08-01T10:53:51;6.35;;;2.80;;
7965;SDS011;4028;43.272;26.932;2022-08-01T10:56:18;3.17;;;2.65;;
7965;SDS011;4028;43.272;26.932;2022-08-01T10:58:45;6.45;;;2.80;;
7965;SDS011;4028;43.272;26.932;2022-08-01T11:01:19;2.53;;;2.42;;
7965;SDS011;4028;43.272;26.932;2022-08-01T11:08:57;3.40;;;3.10;;
7965;SDS011;4028;43.272;26.932;2022-08-01T11:11:25;5.82;;;2.92;;
7965;SDS011;4028;43.272;26.932;2022-08-01T11:16:34;3.42;;;3.17;;
7965;SDS011;4028;43.272;26.932;2022-08-01T11:19:02;3.25;;;3.00;;
7965;SDS011;4028;43.272;26.932;2022-08-01T11:35:17;4.93;;;3.10;;
7965;SDS011;4028;43.272;26.932;2022-08-01T11:37:45;6.57;;;3.55;;
7965;SDS011;4028;43.272;26.932;2022-08-01T11:42:42;4.00;;;3.03;;
7965;SDS011;4028;43.272;26.932;2022-08-01T11:45:07;3.15;;;2.85;;
7965;SDS011;4028;43.272;26.932;2022-08-01T11:47:49;3.58;;;3.00;;
7965;SDS011;4028;43.272;26.932;2022-08-01T11:52:58;5.80;;;3.45;;
7965;SDS011;4028;43.272;26.932;2022-08-01T11:55:24;7.70;;;3.10;;
7965;SDS011;4028;43.272;26.932;2022-08-01T11:58:05;4.93;;;3.08;;
7965;SDS011;4028;43.272;26.932;2022-08-01T12:00:32;8.82;;;3.50;;
7965;SDS011;4028;43.272;26.932;2022-08-01T12:03:02;3.42;;;3.13;;
7965;SDS011;4028;43.272;26.932;2022-08-01T12:05:30;3.92;;;3.17;;
7965;SDS011;4028;43.272;26.932;2022-08-01T12:07:58;4.05;;;3.53;;
7965;SDS011;4028;43.272;26.932;2022-08-01T12:10:26;3.75;;;3.47;;
7965;SDS011;4028;43.272;26.932;2022-08-01T12:12:59;4.97;;;3.10;;
7965;SDS011;4028;43.272;26.932;2022-08-01T12:15:29;5.32;;;3.10;;
7965;SDS011;4028;43.272;26.932;2022-08-01T12:17:57;3.30;;;3.00;;
7965;SDS011;4028;43.272;26.932;2022-08-01T12:20:28;3.53;;;3.22;;
7965;SDS011;4028;43.272;26.932;2022-08-01T12:22:56;3.70;;;3.42;;
7965;SDS011;4028;43.272;26.932;2022-08-01T12:25:23;3.83;;;3.33;;
7965;SDS011;4028;43.272;26.932;2022-08-01T12:27:49;5.32;;;3.60;;
7965;SDS011;4028;43.272;26.932;2022-08-01T12:30:15;4.18;;;3.40;;
7965;SDS011;4028;43.272;26.932;2022-08-01T12:32:44;4.95;;;3.00;;
7965;SDS011;4028;43.272;26.932;2022-08-01T12:35:21;3.53;;;3.25;;
7965;SDS011;4028;43.272;26.932;2022-08-01T12:37:52;3.80;;;3.50;;
7965;SDS011;4028;43.272;26.932;2022-08-01T12:40:20;6.72;;;3.60;;
7965;SDS011;4028;43.272;26.932;2022-08-01T12:45:25;3.67;;;3.35;;
7965;SDS011;4028;43.272;26.932;2022-08-01T12:47:53;4.78;;;3.90;;
7965;SDS011;4028;43.272;26.932;2022-08-01T12:50:20;5.03;;;4.25;;
7965;SDS011;4028;43.272;26.932;2022-08-01T12:52:49;4.93;;;3.42;;
7965;SDS011;4028;43.272;26.932;2022-08-01T12:55:19;3.53;;;3.22;;
7965;SDS011;4028;43.272;26.932;2022-08-01T13:00:36;3.40;;;3.10;;
7965;SDS011;4028;43.272;26.932;2022-08-01T13:03:05;3.85;;;3.50;;
7965;SDS011;4028;43.272;26.932;2022-08-01T13:08:21;3.65;;;3.30;;
7965;SDS011;4028;43.272;26.932;2022-08-01T13:10:48;3.92;;;3.50;;
7965;SDS011;4028;43.272;26.932;2022-08-01T13:13:15;3.65;;;3.20;;
7965;SDS011;4028;43.272;26.932;2022-08-01T13:15:42;3.90;;;3.60;;
7965;SDS011;4028;43.272;26.932;2022-08-01T13:18:42;6.10;;;3.70;;
7965;SDS011;4028;43.272;26.932;2022-08-01T13:23:33;4.72;;;3.28;;
7965;SDS011;4028;43.272;26.932;2022-08-01T13:25:59;4.95;;;3.75;;
7965;SDS011;4028;43.272;26.932;2022-08-01T13:28:25;5.00;;;3.45;;
7965;SDS011;4028;43.272;26.932;2022-08-01T13:30:53;3.67;;;3.30;;
7965;SDS011;4028;43.272;26.932;2022-08-01T13:33:20;3.40;;;3.10;;
7965;SDS011;4028;43.272;26.932;2022-08-01T13:35:45;3.40;;;3.17;;
7965;SDS011;4028;43.272;26.932;2022-08-01T13:38:12;3.40;;;3.10;;
7965;SDS011;4028;43.272;26.932;2022-08-01T13:40:38;4.22;;;3.40;;
7965;SDS011;4028;43.272;26.932;2022-08-01T13:43:04;3.97;;;3.20;;
7965;SDS011;4028;43.272;26.932;2022-08-01T13:45:29;3.58;;;3.28;;
7965;SDS011;4028;43.272;26.932;2022-08-01T13:47:55;3.53;;;3.08;;
7965;SDS011;4028;43.272;26.932;2022-08-01T13:50:20;8.48;;;3.33;;
7965;SDS011;4028;43.272;26.932;2022-08-01T13:52:46;3.28;;;3.08;;
7965;SDS011;4028;43.272;26.932;2022-08-01T13:55:11;6.38;;;2.88;;
7965;SDS011;4028;43.272;26.932;2022-08-01T13:57:37;4.78;;;3.17;;
7965;SDS011;4028;43.272;26.932;2022-08-01T14:00:03;2.90;;;2.70;;
7965;SDS011;4028;43.272;26.932;2022-08-01T14:02:31;3.78;;;2.97;;
7965;SDS011;4028;43.272;26.932;2022-08-01T14:04:56;3.40;;;3.03;;
7965;SDS011;4028;43.272;26.932;2022-08-01T14:07:23;4.70;;;3.30;;
7965;SDS011;4028;43.272;26.932;2022-08-01T14:09:49;3.03;;;2.83;;
7965;SDS011;4028;43.272;26.932;2022-08-01T14:12:15;3.38;;;2.95;;
7965;SDS011;4028;43.272;26.932;2022-08-01T14:14:40;4.18;;;2.80;;
7965;SDS011;4028;43.272;26.932;2022-08-01T14:17:06;5.10;;;2.92;;
7965;SDS011;4028;43.272;26.932;2022-08-01T14:19:31;6.60;;;3.15;;
7965;SDS011;4028;43.272;26.932;2022-08-01T14:21:57;3.45;;;2.85;;
7965;SDS011;4028;43.272;26.932;2022-08-01T14:24:23;3.15;;;2.95;;
7965;SDS011;4028;43.272;26.932;2022-08-01T14:26:49;3.00;;;2.60;;
7965;SDS011;4028;43.272;26.932;2022-08-01T14:29:15;3.42;;;2.67;;
7965;SDS011;4028;43.272;26.932;2022-08-01T14:31:40;3.67;;;2.45;;
7965;SDS011;4028;43.272;26.932;2022-08-01T14:34:06;3.97;;;2.95;;
7965;SDS011;4028;43.272;26.932;2022-08-01T14:36:31;2.97;;;2.78;;
7965;SDS011;4028;43.272;26.932;2022-08-01T14:38:57;6.47;;;3.00;;
7965;SDS011;4028;43.272;26.932;2022-08-01T14:41:23;3.08;;;2.75;;
7965;SDS011;4028;43.272;26.932;2022-08-01T14:43:49;3.25;;;2.80;;
7965;SDS011;4028;43.272;26.932;2022-08-01T14:46:14;3.00;;;2.80;;
7965;SDS011;4028;43.272;26.932;2022-08-01T14:48:40;4.53;;;3.13;;
7965;SDS011;4028;43.272;26.932;2022-08-01T14:51:05;4.97;;;3.25;;
7965;SDS011;4028;43.272;26.932;2022-08-01T14:53:32;5.10;;;2.90;;
7965;SDS011;4028;43.272;26.932;2022-08-01T14:56:00;3.47;;;3.15;;
7965;SDS011;4028;43.272;26.932;2022-08-01T14:58:25;5.07;;;3.30;;
7965;SDS011;4028;43.272;26.932;2022-08-01T15:00:51;6.28;;;3.38;;
7965;SDS011;4028;43.272;26.932;2022-08-01T15:03:19;3.88;;;3.47;;
7965;SDS011;4028;43.272;26.932;2022-08-01T15:05:45;3.80;;;3.50;;
7965;SDS011;4028;43.272;26.932;2022-08-01T15:08:11;3.90;;;3.58;;
7965;SDS011;4028;43.272;26.932;2022-08-01T15:10:37;4.38;;;3.40;;
7965;SDS011;4028;43.272;26.932;2022-08-01T15:13:02;5.57;;;3.83;;
7965;SDS011;4028;43.272;26.932;2022-08-01T15:15:28;7.50;;;4.00;;
7965;SDS011;4028;43.272;26.932;2022-08-01T15:17:54;4.20;;;3.75;;
7965;SDS011;4028;43.272;26.932;2022-08-01T15:20:20;5.57;;;4.03;;
7965;SDS011;4028;43.272;26.932;2022-08-01T15:22:45;4.78;;;3.30;;
7965;SDS011;4028;43.272;26.932;2022-08-01T15:25:12;6.35;;;3.85;;
7965;SDS011;4028;43.272;26.932;2022-08-01T15:27:38;4.10;;;3.70;;
7965;SDS011;4028;43.272;26.932;2022-08-01T15:30:03;4.45;;;3.88;;
7965;SDS011;4028;43.272;26.932;2022-08-01T15:32:29;6.25;;;3.70;;
7965;SDS011;4028;43.272;26.932;2022-08-01T15:34:55;5.18;;;3.90;;
7965;SDS011;4028;43.272;26.932;2022-08-01T15:37:20;4.30;;;3.90;;
7965;SDS011;4028;43.272;26.932;2022-08-01T15:39:46;6.35;;;3.80;;
7965;SDS011;4028;43.272;26.932;2022-08-01T15:42:13;4.15;;;3.85;;
7965;SDS011;4028;43.272;26.932;2022-08-01T15:44:40;4.90;;;4.25;;
7965;SDS011;4028;43.272;26.932;2022-08-01T15:47:06;5.05;;;3.83;;
7965;SDS011;4028;43.272;26.932;2022-08-01T15:49:33;4.00;;;3.70;;
7965;SDS011;4028;43.272;26.932;2022-08-01T15:52:00;4.60;;;4.20;;
7965;SDS011;4028;43.272;26.932;2022-08-01T15:54:27;4.32;;;4.00;;
7965;SDS011;4028;43.272;26.932;2022-08-01T15:56:52;4.88;;;4.35;;
7965;SDS011;4028;43.272;26.932;2022-08-01T15:59:18;6.20;;;4.20;;
7965;SDS011;4028;43.272;26.932;2022-08-01T16:01:43;5.55;;;4.03;;
7965;SDS011;4028;43.272;26.932;2022-08-01T16:04:10;4.93;;;4.10;;
7965;SDS011;4028;43.272;26.932;2022-08-01T16:06:35;6.40;;;4.25;;
7965;SDS011;4028;43.272;26.932;2022-08-01T16:09:02;10.60;;;4.10;;
7965;SDS011;4028;43.272;26.932;2022-08-01T16:11:28;5.97;;;4.18;;